createdAt,value
2022-08-04T00:00:54.936Z,67.26
2022-08-04T00:01:50.194Z,67.01
2022-08-04T00:02:45.189Z,67.00
2022-08-04T00:03:40.992Z,66.88
2022-08-04T00:04:36.226Z,66.87
2022-08-04T00:05:31.558Z,66.88
2022-08-04T00:06:27.638Z,66.67
2022-08-04T00:07:44.401Z,66.99
2022-08-04T00:08:19.135Z,67.17
2022-08-04T00:09:13.197Z,67.10
2022-08-04T00:10:09.652Z,67.32
2022-08-04T00:11:04.799Z,67.22
2022-08-04T00:12:00.583Z,67.31
2022-08-04T00:12:55.797Z,67.35
2022-08-04T00:14:02.329Z,67.32
2022-08-04T00:14:47.880Z,67.43
2022-08-04T00:15:42.068Z,67.59
2022-08-04T00:16:38.427Z,67.72
2022-08-04T00:17:33.495Z,67.86
2022-08-04T00:18:28.750Z,67.97
2022-08-04T00:19:24.538Z,67.98
2022-08-04T00:20:19.662Z,67.88
2022-08-04T00:21:14.933Z,68.00
2022-08-04T00:22:10.617Z,67.98
2022-08-04T00:23:05.857Z,67.92
2022-08-04T00:24:11.625Z,68.07
2022-08-04T00:24:57.198Z,68.31
2022-08-04T00:25:51.356Z,68.42
2022-08-04T00:26:46.320Z,68.57
2022-08-04T00:27:41.397Z,68.59
2022-08-04T00:28:36.636Z,68.53
2022-08-04T00:29:31.665Z,68.53
2022-08-04T00:30:26.757Z,68.88
2022-08-04T00:31:54.304Z,68.89
2022-08-04T00:32:31.132Z,68.98
2022-08-04T00:33:12.955Z,68.95
2022-08-04T00:34:06.995Z,69.09
2022-08-04T00:35:02.173Z,69.07
2022-08-04T00:35:57.149Z,69.08
2022-08-04T00:36:52.234Z,69.30
2022-08-04T00:37:47.230Z,69.10
2022-08-04T00:38:42.314Z,69.26
2022-08-04T00:39:37.739Z,69.30
2022-08-04T00:40:32.744Z,69.03
2022-08-04T00:41:27.729Z,69.19
2022-08-04T00:42:22.832Z,68.95
2022-08-04T00:43:17.935Z,68.99
2022-08-04T00:44:13.037Z,68.90
2022-08-04T00:45:09.084Z,69.18
2022-08-04T00:46:16.131Z,69.14
2022-08-04T00:46:59.143Z,69.16
2022-08-04T00:47:53.167Z,69.25
2022-08-04T00:48:48.265Z,69.25
2022-08-04T00:49:43.340Z,69.38
2022-08-04T00:50:38.472Z,69.14
2022-08-04T00:51:33.452Z,69.21
2022-08-04T00:52:30.691Z,69.30
2022-08-04T00:53:23.840Z,69.29
2022-08-04T00:54:18.936Z,69.35
2022-08-04T00:55:14.085Z,69.36
2022-08-04T00:56:10.008Z,69.25
2022-08-04T00:57:05.239Z,69.43
2022-08-04T00:58:00.339Z,69.25
2022-08-04T00:58:56.927Z,69.32
2022-08-04T00:59:52.179Z,69.38
2022-08-04T01:00:47.841Z,69.32
2022-08-04T01:01:43.091Z,69.19
2022-08-04T01:02:38.228Z,69.37
2022-08-04T01:03:34.026Z,69.52
2022-08-04T01:04:29.168Z,69.57
2022-08-04T01:05:24.954Z,69.44
2022-08-04T01:06:20.167Z,69.47
2022-08-04T01:07:15.459Z,69.53
2022-08-04T01:08:11.238Z,69.67
2022-08-04T01:09:06.418Z,69.61
2022-08-04T01:10:01.607Z,69.72
2022-08-04T01:10:57.970Z,70.00
2022-08-04T01:11:56.579Z,69.92
2022-08-04T01:12:49.173Z,70.05
2022-08-04T01:13:44.277Z,70.37
2022-08-04T01:14:39.397Z,70.37
2022-08-04T01:15:59.395Z,70.45
2022-08-04T01:16:31.354Z,70.62
2022-08-04T01:17:26.197Z,70.96
2022-08-04T01:18:21.423Z,70.94
2022-08-04T01:19:16.813Z,70.79
2022-08-04T01:20:12.471Z,70.71
2022-08-04T01:21:07.703Z,70.71
2022-08-04T01:22:02.823Z,70.87
2022-08-04T01:22:59.284Z,71.02
2022-08-04T01:23:54.541Z,71.11
2022-08-04T01:24:50.850Z,71.03
2022-08-04T01:25:45.488Z,71.08
2022-08-04T01:26:42.692Z,71.07
2022-08-04T01:27:37.970Z,71.09
2022-08-04T01:28:31.740Z,71.06
2022-08-04T01:29:32.312Z,71.04
2022-08-04T01:30:23.629Z,71.10
2022-08-04T01:31:18.524Z,71.08
2022-08-04T01:32:13.648Z,71.08
2022-08-04T01:33:09.573Z,71.07
2022-08-04T01:34:04.997Z,71.18
2022-08-04T01:35:00.026Z,71.05
2022-08-04T01:35:55.887Z,71.18
2022-08-04T01:36:51.040Z,71.28
2022-08-04T01:37:46.267Z,71.46
2022-08-04T01:38:42.611Z,71.49
2022-08-04T01:39:37.860Z,71.42
2022-08-04T01:40:33.196Z,71.35
2022-08-04T01:41:32.413Z,71.39
2022-08-04T01:42:31.638Z,71.44
2022-08-04T01:43:21.352Z,71.44
2022-08-04T01:44:15.489Z,71.64
2022-08-04T01:45:10.876Z,71.60
2022-08-04T01:46:07.013Z,71.68
2022-08-04T01:47:01.797Z,71.64
2022-08-04T01:47:57.605Z,71.77
2022-08-04T01:48:52.811Z,71.79
2022-08-04T01:49:48.179Z,71.79
2022-08-04T01:50:43.856Z,71.82
2022-08-04T01:51:39.111Z,71.75
2022-08-04T01:52:34.214Z,71.75
2022-08-04T01:53:30.672Z,71.84
2022-08-04T01:54:25.945Z,71.82
2022-08-04T01:55:21.724Z,71.81
2022-08-04T01:56:16.953Z,71.83
2022-08-04T01:57:38.831Z,71.88
2022-08-04T01:58:08.163Z,72.16
2022-08-04T01:59:02.183Z,72.36
2022-08-04T01:59:57.265Z,72.17
2022-08-04T02:00:56.333Z,72.10
2022-08-04T02:01:47.535Z,72.14
2022-08-04T02:02:42.476Z,72.04
2022-08-04T02:04:18.777Z,72.05
2022-08-04T02:04:34.995Z,71.91
2022-08-04T02:06:03.841Z,71.90
2022-08-04T02:06:25.046Z,71.89
2022-08-04T02:07:19.102Z,71.83
2022-08-04T02:08:14.171Z,71.84
2022-08-04T02:09:09.242Z,71.71
2022-08-04T02:10:05.450Z,71.98
2022-08-04T02:11:00.674Z,71.85
2022-08-04T02:11:55.942Z,71.99
2022-08-04T02:12:51.027Z,72.06
2022-08-04T02:13:46.110Z,72.19
2022-08-04T02:14:41.219Z,72.28
2022-08-04T02:15:36.330Z,72.38
2022-08-04T02:16:31.460Z,72.44
2022-08-04T02:17:26.438Z,72.72
2022-08-04T02:18:21.516Z,72.75
2022-08-04T02:19:16.525Z,72.74
2022-08-04T02:20:11.621Z,72.71
2022-08-04T02:21:09.275Z,72.59
2022-08-04T02:22:04.376Z,72.53
2022-08-04T02:23:05.418Z,72.45
2022-08-04T02:24:00.636Z,72.54
2022-08-04T02:24:55.732Z,72.72
2022-08-04T02:25:50.826Z,72.77
2022-08-04T02:26:46.072Z,72.71
2022-08-04T02:28:00.406Z,72.71
2022-08-04T02:28:37.337Z,72.65
2022-08-04T02:29:32.222Z,72.53
2022-08-04T02:30:26.714Z,72.59
2022-08-04T02:31:23.064Z,72.50
2022-08-04T02:32:18.309Z,72.47
2022-08-04T02:33:14.254Z,72.45
2022-08-04T02:34:09.352Z,72.76
2022-08-04T02:35:04.462Z,72.65
2022-08-04T02:36:00.275Z,72.42
2022-08-04T02:36:55.486Z,72.42
2022-08-04T02:37:50.840Z,72.50
2022-08-04T02:38:46.942Z,72.51
2022-08-04T02:39:48.758Z,72.67
2022-08-04T02:40:38.911Z,72.88
2022-08-04T02:41:33.151Z,72.91
2022-08-04T02:42:28.488Z,72.88
2022-08-04T02:43:50.764Z,72.75
2022-08-04T02:44:20.345Z,72.81
2022-08-04T02:45:15.215Z,72.55
2022-08-04T02:46:17.940Z,72.51
2022-08-04T02:47:06.727Z,72.52
2022-08-04T02:48:28.805Z,72.40
2022-08-04T02:48:57.657Z,72.71
2022-08-04T02:49:51.811Z,72.74
2022-08-04T02:50:46.849Z,72.94
2022-08-04T02:51:41.859Z,72.99
2022-08-04T02:52:37.014Z,72.99
2022-08-04T02:53:32.103Z,72.91
2022-08-04T02:54:32.808Z,72.94
2022-08-04T02:55:23.268Z,72.96
2022-08-04T02:56:17.449Z,72.96
2022-08-04T02:57:15.504Z,72.85
2022-08-04T02:58:10.579Z,72.77
2022-08-04T02:59:05.581Z,72.79
2022-08-04T03:00:00.579Z,72.70
2022-08-04T03:00:55.765Z,72.70
2022-08-04T03:01:57.268Z,72.86
2022-08-04T03:02:46.804Z,73.05
2022-08-04T03:03:40.869Z,73.05
2022-08-04T03:04:35.978Z,72.98
2022-08-04T03:05:31.065Z,73.26
2022-08-04T03:06:27.664Z,73.55
2022-08-04T03:07:21.934Z,73.66
2022-08-04T03:08:17.829Z,73.57
2022-08-04T03:09:12.923Z,73.68
2022-08-04T03:10:08.153Z,73.77
2022-08-04T03:11:03.851Z,73.88
2022-08-04T03:11:59.108Z,74.04
2022-08-04T03:12:58.782Z,73.95
2022-08-04T03:13:50.096Z,74.10
2022-08-04T03:14:45.914Z,73.96
2022-08-04T03:15:41.054Z,73.91
2022-08-04T03:16:38.824Z,73.98
2022-08-04T03:17:31.922Z,73.91
2022-08-04T03:18:27.073Z,73.93
2022-08-04T03:19:22.172Z,74.01
2022-08-04T03:20:17.173Z,73.68
2022-08-04T03:21:12.231Z,73.63
2022-08-04T03:22:07.351Z,73.70
2022-08-04T03:23:17.343Z,73.54
2022-08-04T03:23:58.410Z,73.73
2022-08-04T03:24:52.457Z,73.82
2022-08-04T03:25:56.913Z,73.86
2022-08-04T03:26:43.610Z,73.89
2022-08-04T03:27:37.639Z,73.81
2022-08-04T03:28:32.728Z,73.69
2022-08-04T03:29:36.469Z,73.60
2022-08-04T03:30:24.479Z,73.58
2022-08-04T03:31:18.628Z,73.58
2022-08-04T03:32:13.838Z,73.47
2022-08-04T03:33:09.228Z,73.67
2022-08-04T03:34:05.298Z,73.67
2022-08-04T03:35:00.508Z,73.62
2022-08-04T03:35:55.765Z,73.71
2022-08-04T03:36:51.506Z,73.72
2022-08-04T03:37:46.689Z,73.79
2022-08-04T03:38:42.549Z,73.76
2022-08-04T03:39:37.926Z,73.73
2022-08-04T03:40:33.226Z,73.74
2022-08-04T03:41:54.945Z,73.73
2022-08-04T03:42:25.177Z,73.75
2022-08-04T03:43:56.950Z,73.83
2022-08-04T03:44:15.465Z,73.97
2022-08-04T03:45:20.535Z,74.06
2022-08-04T03:46:05.538Z,74.08
2022-08-04T03:46:59.631Z,74.09
2022-08-04T03:47:54.654Z,74.20
